aviador You're here:

CYQW Decoded Metar

NORTH BATTLEFORD in SK, CANADA
Report Time2018-01-22 11:54:00
UTC Time2018-01-22 12:04:53
Flight Rules lifr LIFR
Wind140° at 18 Gusting to 25 kt
W.Decomp.*RWY 12: 17.8 kt HW 2.5 kt RCW
RWY 06: 6.7 kt HW 16.7 kt RCW
W.Rank140° ranks 13
Current wind is above 140° avg. (7.5)
Visibility3621 m
Phenomena:Mist
Clouds:Overcast 004 Hf
Expected CloudBase > 400 ft AGL from Temp-Dew spread
Ceiling400 ft
Temp-7°C (ISA -18)
Dew Point-8°C (93% RH)
AAT-16.4°C
QNH1009 hPa
Density Alt-289 ft
Elevation1,798 ft
Report Wrong Elevation
Raw Report
SPECI CYQW 221154Z AUTO 14018G25KT 2 1/4SM BR OVC004 M07/M08 A2981
RMK VIS VRB 1 3/4-3 ICG SLP131=

Extra information for CYQW:More info

Metar Taf Metar & Taf Last 4 Metars F.Rules Stats Wind Profile Meteogram Temp Stats Airport Information Weather charts Add Link Nearby VenuesMetar ALERT Operation Metar Decoded Social comments